sensor_id;sensor_type;location;lat;lon;timestamp;temperature;humidity
11107;DHT22;5607;48.302;14.294;2023-02-02T00:01:43;5.10;29.70
11107;DHT22;5607;48.302;14.294;2023-02-02T00:04:33;5.10;42.20
11107;DHT22;5607;48.302;14.294;2023-02-02T00:07:21;5.00;66.00
11107;DHT22;5607;48.302;14.294;2023-02-02T00:10:07;5.00;38.70
11107;DHT22;5607;48.302;14.294;2023-02-02T00:12:54;5.00;29.00
11107;DHT22;5607;48.302;14.294;2023-02-02T00:15:44;5.10;16.60
11107;DHT22;5607;48.302;14.294;2023-02-02T00:18:30;5.10;14.40
11107;DHT22;5607;48.302;14.294;2023-02-02T00:21:17;5.20;1.00
11107;DHT22;5607;48.302;14.294;2023-02-02T00:24:04;5.20;1.00
11107;DHT22;5607;48.302;14.294;2023-02-02T00:26:54;5.20;1.00
11107;DHT22;5607;48.302;14.294;2023-02-02T00:29:42;5.20;1.00
11107;DHT22;5607;48.302;14.294;2023-02-02T00:32:29;5.10;22.40
11107;DHT22;5607;48.302;14.294;2023-02-02T00:35:15;5.10;30.60
11107;DHT22;5607;48.302;14.294;2023-02-02T00:38:02;5.00;61.40
11107;DHT22;5607;48.302;14.294;2023-02-02T00:40:48;5.00;53.60
11107;DHT22;5607;48.302;14.294;2023-02-02T00:43:35;5.00;84.00
11107;DHT22;5607;48.302;14.294;2023-02-02T00:46:22;4.90;99.90
11107;DHT22;5607;48.302;14.294;2023-02-02T00:49:08;4.80;99.90
11107;DHT22;5607;48.302;14.294;2023-02-02T00:51:55;4.70;99.90
11107;DHT22;5607;48.302;14.294;2023-02-02T00:54:42;4.60;99.90
11107;DHT22;5607;48.302;14.294;2023-02-02T00:57:28;4.60;99.90
11107;DHT22;5607;48.302;14.294;2023-02-02T01:00:24;4.60;99.90
11107;DHT22;5607;48.302;14.294;2023-02-02T01:03:11;4.60;99.90
11107;DHT22;5607;48.302;14.294;2023-02-02T01:05:58;4.60;99.90
11107;DHT22;5607;48.302;14.294;2023-02-02T01:08:45;4.60;99.90
11107;DHT22;5607;48.302;14.294;2023-02-02T01:11:31;4.70;99.90
11107;DHT22;5607;48.302;14.294;2023-02-02T01:14:18;4.70;99.90
11107;DHT22;5607;48.302;14.294;2023-02-02T01:17:05;4.70;99.90
11107;DHT22;5607;48.302;14.294;2023-02-02T01:19:51;4.70;99.90
11107;DHT22;5607;48.302;14.294;2023-02-02T01:22:38;4.70;99.90
11107;DHT22;5607;48.302;14.294;2023-02-02T01:25:24;4.70;99.90
11107;DHT22;5607;48.302;14.294;2023-02-02T01:28:12;4.70;99.90
11107;DHT22;5607;48.302;14.294;2023-02-02T01:31:03;4.70;99.90
11107;DHT22;5607;48.302;14.294;2023-02-02T01:33:52;4.70;99.90
11107;DHT22;5607;48.302;14.294;2023-02-02T01:36:39;4.80;99.90
11107;DHT22;5607;48.302;14.294;2023-02-02T01:39:25;4.80;99.90
11107;DHT22;5607;48.302;14.294;2023-02-02T01:42:13;4.80;99.90
11107;DHT22;5607;48.302;14.294;2023-02-02T01:45:12;4.90;98.50
11107;DHT22;5607;48.302;14.294;2023-02-02T01:48:13;5.00;92.10
11107;DHT22;5607;48.302;14.294;2023-02-02T01:51:03;5.00;99.90
11107;DHT22;5607;48.302;14.294;2023-02-02T01:53:53;5.00;64.40
11107;DHT22;5607;48.302;14.294;2023-02-02T01:56:49;5.10;34.10
11107;DHT22;5607;48.302;14.294;2023-02-02T01:59:41;5.10;50.60
11107;DHT22;5607;48.302;14.294;2023-02-02T02:02:29;5.20;33.40
11107;DHT22;5607;48.302;14.294;2023-02-02T02:05:18;5.20;26.10
11107;DHT22;5607;48.302;14.294;2023-02-02T02:08:17;5.20;32.00
11107;DHT22;5607;48.302;14.294;2023-02-02T02:11:06;5.20;57.70
11107;DHT22;5607;48.302;14.294;2023-02-02T02:13:53;5.00;99.90
11107;DHT22;5607;48.302;14.294;2023-02-02T02:23:43;4.60;99.90
11107;DHT22;5607;48.302;14.294;2023-02-02T02:33:21;3.40;99.90
11107;DHT22;5607;48.302;14.294;2023-02-02T02:36:14;3.40;99.90
11107;DHT22;5607;48.302;14.294;2023-02-02T02:39:19;3.50;99.90
11107;DHT22;5607;48.302;14.294;2023-02-02T02:42:13;3.40;99.90
11107;DHT22;5607;48.302;14.294;2023-02-02T02:45:05;3.50;99.90
11107;DHT22;5607;48.302;14.294;2023-02-02T02:47:53;3.40;99.90
11107;DHT22;5607;48.302;14.294;2023-02-02T02:50:40;3.40;99.90
11107;DHT22;5607;48.302;14.294;2023-02-02T02:53:27;3.40;99.90
11107;DHT22;5607;48.302;14.294;2023-02-02T02:56:17;3.40;99.90
11107;DHT22;5607;48.302;14.294;2023-02-02T02:59:17;3.20;99.90
11107;DHT22;5607;48.302;14.294;2023-02-02T03:05:08;3.30;99.90
11107;DHT22;5607;48.302;14.294;2023-02-02T03:08:19;3.30;99.90
11107;DHT22;5607;48.302;14.294;2023-02-02T03:11:23;3.20;99.90
11107;DHT22;5607;48.302;14.294;2023-02-02T03:14:09;3.10;99.90
11107;DHT22;5607;48.302;14.294;2023-02-02T03:16:56;2.80;99.90
11107;DHT22;5607;48.302;14.294;2023-02-02T03:19:42;2.70;99.90
11107;DHT22;5607;48.302;14.294;2023-02-02T03:22:29;2.80;99.90
11107;DHT22;5607;48.302;14.294;2023-02-02T03:25:15;2.80;99.90
11107;DHT22;5607;48.302;14.294;2023-02-02T03:28:03;2.90;99.90
11107;DHT22;5607;48.302;14.294;2023-02-02T03:30:50;2.90;99.90
11107;DHT22;5607;48.302;14.294;2023-02-02T03:33:38;2.80;99.90
11107;DHT22;5607;48.302;14.294;2023-02-02T03:36:25;2.80;99.90
11107;DHT22;5607;48.302;14.294;2023-02-02T03:39:12;2.80;99.90
11107;DHT22;5607;48.302;14.294;2023-02-02T03:41:59;2.80;99.90
11107;DHT22;5607;48.302;14.294;2023-02-02T03:44:45;2.90;99.90
11107;DHT22;5607;48.302;14.294;2023-02-02T03:47:32;2.90;99.90
11107;DHT22;5607;48.302;14.294;2023-02-02T03:50:19;2.90;99.90
11107;DHT22;5607;48.302;14.294;2023-02-02T03:53:05;2.90;99.90
11107;DHT22;5607;48.302;14.294;2023-02-02T03:55:52;2.80;99.90
11107;DHT22;5607;48.302;14.294;2023-02-02T03:58:38;2.80;99.90
11107;DHT22;5607;48.302;14.294;2023-02-02T04:01:28;2.90;99.90
11107;DHT22;5607;48.302;14.294;2023-02-02T04:04:15;2.90;99.90
11107;DHT22;5607;48.302;14.294;2023-02-02T04:07:02;2.60;99.90
11107;DHT22;5607;48.302;14.294;2023-02-02T04:09:48;2.60;99.90
11107;DHT22;5607;48.302;14.294;2023-02-02T04:12:35;2.60;99.90
11107;DHT22;5607;48.302;14.294;2023-02-02T04:15:21;2.60;99.90
11107;DHT22;5607;48.302;14.294;2023-02-02T04:18:08;2.70;99.90
11107;DHT22;5607;48.302;14.294;2023-02-02T04:20:55;2.80;99.90
11107;DHT22;5607;48.302;14.294;2023-02-02T04:23:43;2.80;99.90
11107;DHT22;5607;48.302;14.294;2023-02-02T04:26:29;3.00;99.90
11107;DHT22;5607;48.302;14.294;2023-02-02T04:29:16;3.00;99.90
11107;DHT22;5607;48.302;14.294;2023-02-02T04:32:02;3.00;99.90
11107;DHT22;5607;48.302;14.294;2023-02-02T04:34:49;3.10;99.90
11107;DHT22;5607;48.302;14.294;2023-02-02T04:37:36;3.10;99.90
11107;DHT22;5607;48.302;14.294;2023-02-02T04:40:22;3.10;99.90
11107;DHT22;5607;48.302;14.294;2023-02-02T04:43:09;3.20;99.90
11107;DHT22;5607;48.302;14.294;2023-02-02T04:45:56;3.10;99.90
11107;DHT22;5607;48.302;14.294;2023-02-02T04:48:42;3.10;99.90
11107;DHT22;5607;48.302;14.294;2023-02-02T04:51:29;3.20;99.90
11107;DHT22;5607;48.302;14.294;2023-02-02T04:54:15;3.30;99.90
11107;DHT22;5607;48.302;14.294;2023-02-02T04:57:02;3.20;99.90
11107;DHT22;5607;48.302;14.294;2023-02-02T04:59:49;3.20;99.90
11107;DHT22;5607;48.302;14.294;2023-02-02T05:02:36;3.20;99.90
11107;DHT22;5607;48.302;14.294;2023-02-02T05:05:23;3.10;99.90
11107;DHT22;5607;48.302;14.294;2023-02-02T05:08:09;3.10;99.90
11107;DHT22;5607;48.302;14.294;2023-02-02T05:10:57;3.10;99.90
11107;DHT22;5607;48.302;14.294;2023-02-02T05:13:47;3.10;99.90
11107;DHT22;5607;48.302;14.294;2023-02-02T05:16:38;3.00;99.90
11107;DHT22;5607;48.302;14.294;2023-02-02T05:19:25;3.10;99.90
11107;DHT22;5607;48.302;14.294;2023-02-02T05:22:11;3.00;99.90
11107;DHT22;5607;48.302;14.294;2023-02-02T05:24:58;3.00;99.90
11107;DHT22;5607;48.302;14.294;2023-02-02T05:27:45;2.90;99.90
11107;DHT22;5607;48.302;14.294;2023-02-02T05:30:31;2.90;99.90
11107;DHT22;5607;48.302;14.294;2023-02-02T05:33:18;2.80;99.90
11107;DHT22;5607;48.302;14.294;2023-02-02T05:36:05;2.80;99.90
11107;DHT22;5607;48.302;14.294;2023-02-02T05:38:52;2.90;99.90
11107;DHT22;5607;48.302;14.294;2023-02-02T05:41:38;3.00;99.90
11107;DHT22;5607;48.302;14.294;2023-02-02T05:44:25;2.90;99.90
11107;DHT22;5607;48.302;14.294;2023-02-02T05:47:13;3.00;99.90
11107;DHT22;5607;48.302;14.294;2023-02-02T05:50:00;3.10;99.90
11107;DHT22;5607;48.302;14.294;2023-02-02T05:52:47;3.10;99.90
11107;DHT22;5607;48.302;14.294;2023-02-02T05:55:34;3.20;99.90
11107;DHT22;5607;48.302;14.294;2023-02-02T05:58:21;3.30;99.90
11107;DHT22;5607;48.302;14.294;2023-02-02T06:01:08;3.10;99.90
11107;DHT22;5607;48.302;14.294;2023-02-02T06:03:55;2.90;99.90
11107;DHT22;5607;48.302;14.294;2023-02-02T06:06:41;3.00;99.90
11107;DHT22;5607;48.302;14.294;2023-02-02T06:09:30;3.00;99.90
11107;DHT22;5607;48.302;14.294;2023-02-02T06:12:16;2.80;99.90
11107;DHT22;5607;48.302;14.294;2023-02-02T06:15:04;2.80;99.90
11107;DHT22;5607;48.302;14.294;2023-02-02T06:17:51;2.80;99.90
11107;DHT22;5607;48.302;14.294;2023-02-02T06:20:38;2.80;99.90
11107;DHT22;5607;48.302;14.294;2023-02-02T06:23:25;2.80;99.90
11107;DHT22;5607;48.302;14.294;2023-02-02T06:26:12;2.80;99.90
11107;DHT22;5607;48.302;14.294;2023-02-02T06:29:00;2.90;99.90
11107;DHT22;5607;48.302;14.294;2023-02-02T06:31:49;2.90;99.90
11107;DHT22;5607;48.302;14.294;2023-02-02T06:34:36;3.10;99.90
11107;DHT22;5607;48.302;14.294;2023-02-02T06:37:22;3.10;99.90
11107;DHT22;5607;48.302;14.294;2023-02-02T06:40:11;3.10;99.90
11107;DHT22;5607;48.302;14.294;2023-02-02T06:42:59;3.10;99.90
11107;DHT22;5607;48.302;14.294;2023-02-02T06:45:47;3.20;99.90
11107;DHT22;5607;48.302;14.294;2023-02-02T06:48:33;3.20;99.90
11107;DHT22;5607;48.302;14.294;2023-02-02T06:51:20;3.00;99.90
11107;DHT22;5607;48.302;14.294;2023-02-02T06:54:07;3.00;99.90
11107;DHT22;5607;48.302;14.294;2023-02-02T06:56:53;2.90;99.90
11107;DHT22;5607;48.302;14.294;2023-02-02T06:59:41;3.00;99.90
11107;DHT22;5607;48.302;14.294;2023-02-02T07:02:28;3.00;99.90
11107;DHT22;5607;48.302;14.294;2023-02-02T07:05:14;3.00;99.90
11107;DHT22;5607;48.302;14.294;2023-02-02T07:08:01;3.00;99.90
11107;DHT22;5607;48.302;14.294;2023-02-02T07:10:47;3.00;99.90
11107;DHT22;5607;48.302;14.294;2023-02-02T07:13:34;3.00;99.90
11107;DHT22;5607;48.302;14.294;2023-02-02T07:16:21;2.90;99.90
11107;DHT22;5607;48.302;14.294;2023-02-02T07:19:07;2.90;99.90
11107;DHT22;5607;48.302;14.294;2023-02-02T07:21:54;2.90;99.90
11107;DHT22;5607;48.302;14.294;2023-02-02T07:24:40;2.90;99.90
11107;DHT22;5607;48.302;14.294;2023-02-02T07:27:27;3.00;99.90
11107;DHT22;5607;48.302;14.294;2023-02-02T07:30:14;2.90;99.90
11107;DHT22;5607;48.302;14.294;2023-02-02T07:33:02;3.00;99.90
11107;DHT22;5607;48.302;14.294;2023-02-02T07:35:48;3.00;99.90
11107;DHT22;5607;48.302;14.294;2023-02-02T07:38:35;3.00;99.90
11107;DHT22;5607;48.302;14.294;2023-02-02T07:41:22;3.00;99.90
11107;DHT22;5607;48.302;14.294;2023-02-02T07:44:09;3.00;99.90
11107;DHT22;5607;48.302;14.294;2023-02-02T07:47:00;3.20;99.90
11107;DHT22;5607;48.302;14.294;2023-02-02T07:49:47;3.10;99.90
11107;DHT22;5607;48.302;14.294;2023-02-02T07:52:33;3.10;99.90
11107;DHT22;5607;48.302;14.294;2023-02-02T07:55:21;3.00;99.90
11107;DHT22;5607;48.302;14.294;2023-02-02T07:58:07;3.00;99.90
11107;DHT22;5607;48.302;14.294;2023-02-02T08:00:58;2.90;99.90
11107;DHT22;5607;48.302;14.294;2023-02-02T08:03:46;3.00;99.90
11107;DHT22;5607;48.302;14.294;2023-02-02T08:06:33;3.10;99.90
11107;DHT22;5607;48.302;14.294;2023-02-02T08:09:21;3.10;99.90
11107;DHT22;5607;48.302;14.294;2023-02-02T08:12:08;3.20;99.90
11107;DHT22;5607;48.302;14.294;2023-02-02T08:14:54;3.30;99.90
11107;DHT22;5607;48.302;14.294;2023-02-02T08:17:44;3.40;99.90
11107;DHT22;5607;48.302;14.294;2023-02-02T08:20:32;3.40;99.90
11107;DHT22;5607;48.302;14.294;2023-02-02T08:23:19;3.50;99.90
11107;DHT22;5607;48.302;14.294;2023-02-02T08:26:10;3.50;99.90
11107;DHT22;5607;48.302;14.294;2023-02-02T08:29:05;3.60;99.90
11107;DHT22;5607;48.302;14.294;2023-02-02T08:31:53;3.60;99.90
11107;DHT22;5607;48.302;14.294;2023-02-02T08:34:40;3.70;99.90
11107;DHT22;5607;48.302;14.294;2023-02-02T08:37:26;3.70;99.90
11107;DHT22;5607;48.302;14.294;2023-02-02T08:40:13;3.80;99.90
11107;DHT22;5607;48.302;14.294;2023-02-02T08:43:00;3.70;99.90
11107;DHT22;5607;48.302;14.294;2023-02-02T08:45:46;3.80;99.90
11107;DHT22;5607;48.302;14.294;2023-02-02T08:48:33;3.80;99.90
11107;DHT22;5607;48.302;14.294;2023-02-02T08:51:21;3.60;99.90
11107;DHT22;5607;48.302;14.294;2023-02-02T08:54:09;3.40;99.90
11107;DHT22;5607;48.302;14.294;2023-02-02T08:56:56;3.40;99.90
11107;DHT22;5607;48.302;14.294;2023-02-02T08:59:42;3.50;99.90
11107;DHT22;5607;48.302;14.294;2023-02-02T09:02:29;3.40;99.90
11107;DHT22;5607;48.302;14.294;2023-02-02T09:05:15;3.50;99.90
11107;DHT22;5607;48.302;14.294;2023-02-02T09:08:02;3.50;99.90
11107;DHT22;5607;48.302;14.294;2023-02-02T09:10:49;3.50;99.90
11107;DHT22;5607;48.302;14.294;2023-02-02T09:13:36;3.60;99.90
11107;DHT22;5607;48.302;14.294;2023-02-02T09:16:24;3.50;99.90
11107;DHT22;5607;48.302;14.294;2023-02-02T09:19:11;3.50;99.90
11107;DHT22;5607;48.302;14.294;2023-02-02T09:21:58;3.60;99.90
11107;DHT22;5607;48.302;14.294;2023-02-02T09:24:44;3.50;99.90
11107;DHT22;5607;48.302;14.294;2023-02-02T09:27:35;3.70;99.90
11107;DHT22;5607;48.302;14.294;2023-02-02T09:30:22;3.60;99.90
11107;DHT22;5607;48.302;14.294;2023-02-02T09:33:09;3.60;99.90
11107;DHT22;5607;48.302;14.294;2023-02-02T09:36:01;3.60;99.90
11107;DHT22;5607;48.302;14.294;2023-02-02T09:38:50;3.70;99.90
11107;DHT22;5607;48.302;14.294;2023-02-02T09:44:43;3.80;99.90
11107;DHT22;5607;48.302;14.294;2023-02-02T09:56:35;4.00;99.90
11107;DHT22;5607;48.302;14.294;2023-02-02T09:59:33;4.10;99.90
11107;DHT22;5607;48.302;14.294;2023-02-02T10:02:32;4.10;99.90
11107;DHT22;5607;48.302;14.294;2023-02-02T10:05:25;4.30;99.90
11107;DHT22;5607;48.302;14.294;2023-02-02T10:08:20;4.40;99.90
11107;DHT22;5607;48.302;14.294;2023-02-02T10:14:40;4.20;99.90
11107;DHT22;5607;48.302;14.294;2023-02-02T10:17:39;4.30;99.90
11107;DHT22;5607;48.302;14.294;2023-02-02T10:20:44;4.40;99.90
11107;DHT22;5607;48.302;14.294;2023-02-02T10:23:37;4.40;94.90
11107;DHT22;5607;48.302;14.294;2023-02-02T10:29:28;4.10;99.90
11107;DHT22;5607;48.302;14.294;2023-02-02T10:32:24;4.10;99.90
11107;DHT22;5607;48.302;14.294;2023-02-02T10:38:37;4.10;99.90
11107;DHT22;5607;48.302;14.294;2023-02-02T10:41:40;4.30;99.90
11107;DHT22;5607;48.302;14.294;2023-02-02T10:44:44;4.20;99.90
11107;DHT22;5607;48.302;14.294;2023-02-02T10:47:35;4.30;99.90
11107;DHT22;5607;48.302;14.294;2023-02-02T10:50:22;4.30;99.90
11107;DHT22;5607;48.302;14.294;2023-02-02T10:53:12;4.30;99.90
11107;DHT22;5607;48.302;14.294;2023-02-02T10:56:07;4.40;99.90
11107;DHT22;5607;48.302;14.294;2023-02-02T10:59:12;4.40;99.90
11107;DHT22;5607;48.302;14.294;2023-02-02T11:02:08;4.60;88.20
11107;DHT22;5607;48.302;14.294;2023-02-02T11:04:56;4.70;87.30
11107;DHT22;5607;48.302;14.294;2023-02-02T11:08:13;4.70;80.80
11107;DHT22;5607;48.302;14.294;2023-02-02T11:11:24;4.90;60.90
11107;DHT22;5607;48.302;14.294;2023-02-02T11:17:50;5.00;50.60
11107;DHT22;5607;48.302;14.294;2023-02-02T11:20:37;4.90;26.90
11107;DHT22;5607;48.302;14.294;2023-02-02T11:23:25;4.90;27.80
11107;DHT22;5607;48.302;14.294;2023-02-02T11:26:13;4.60;35.40
11107;DHT22;5607;48.302;14.294;2023-02-02T11:29:00;4.50;69.30
11107;DHT22;5607;48.302;14.294;2023-02-02T11:31:46;4.40;88.00
11107;DHT22;5607;48.302;14.294;2023-02-02T11:34:33;4.30;89.70
11107;DHT22;5607;48.302;14.294;2023-02-02T11:37:20;4.10;99.90
11107;DHT22;5607;48.302;14.294;2023-02-02T11:43:21;3.90;99.90
11107;DHT22;5607;48.302;14.294;2023-02-02T11:46:32;3.80;99.90
11107;DHT22;5607;48.302;14.294;2023-02-02T11:49:23;3.80;99.90
11107;DHT22;5607;48.302;14.294;2023-02-02T11:52:15;3.80;99.90
11107;DHT22;5607;48.302;14.294;2023-02-02T11:55:08;3.80;99.90
11107;DHT22;5607;48.302;14.294;2023-02-02T12:01:20;3.60;99.90
11107;DHT22;5607;48.302;14.294;2023-02-02T12:06:58;3.80;99.90
11107;DHT22;5607;48.302;14.294;2023-02-02T12:09:44;3.90;99.90
11107;DHT22;5607;48.302;14.294;2023-02-02T12:31:28;3.90;99.90
11107;DHT22;5607;48.302;14.294;2023-02-02T12:56:35;3.70;99.90
11107;DHT22;5607;48.302;14.294;2023-02-02T13:09:32;3.70;99.90
11107;DHT22;5607;48.302;14.294;2023-02-02T13:12:41;3.70;99.90
11107;DHT22;5607;48.302;14.294;2023-02-02T13:15:45;3.70;99.90
11107;DHT22;5607;48.302;14.294;2023-02-02T13:18:41;3.70;99.90
11107;DHT22;5607;48.302;14.294;2023-02-02T13:21:34;3.70;99.90
11107;DHT22;5607;48.302;14.294;2023-02-02T13:24:27;3.80;99.90
11107;DHT22;5607;48.302;14.294;2023-02-02T13:27:17;3.70;99.90
11107;DHT22;5607;48.302;14.294;2023-02-02T13:30:10;3.70;99.90
11107;DHT22;5607;48.302;14.294;2023-02-02T13:33:12;3.90;99.90
11107;DHT22;5607;48.302;14.294;2023-02-02T13:36:26;3.80;99.90
11107;DHT22;5607;48.302;14.294;2023-02-02T13:39:20;3.80;99.90
11107;DHT22;5607;48.302;14.294;2023-02-02T13:45:39;3.70;99.90
11107;DHT22;5607;48.302;14.294;2023-02-02T13:48:36;3.80;99.90
11107;DHT22;5607;48.302;14.294;2023-02-02T13:58:10;3.90;99.90
11107;DHT22;5607;48.302;14.294;2023-02-02T14:01:12;3.80;99.90
11107;DHT22;5607;48.302;14.294;2023-02-02T14:03:59;3.80;99.90
11107;DHT22;5607;48.302;14.294;2023-02-02T14:06:57;3.70;99.90
11107;DHT22;5607;48.302;14.294;2023-02-02T14:09:47;3.60;99.90
11107;DHT22;5607;48.302;14.294;2023-02-02T14:12:33;3.60;99.90
11107;DHT22;5607;48.302;14.294;2023-02-02T14:15:40;3.70;99.90
11107;DHT22;5607;48.302;14.294;2023-02-02T14:30:21;3.60;99.90
11107;DHT22;5607;48.302;14.294;2023-02-02T14:33:26;3.60;99.90
11107;DHT22;5607;48.302;14.294;2023-02-02T14:36:23;3.40;99.90
11107;DHT22;5607;48.302;14.294;2023-02-02T14:39:15;3.40;99.90
11107;DHT22;5607;48.302;14.294;2023-02-02T14:42:09;3.50;99.90
11107;DHT22;5607;48.302;14.294;2023-02-02T14:45:38;3.60;99.90
11107;DHT22;5607;48.302;14.294;2023-02-02T14:48:28;3.60;99.90
11107;DHT22;5607;48.302;14.294;2023-02-02T14:54:06;3.40;99.90
11107;DHT22;5607;48.302;14.294;2023-02-02T14:57:18;3.40;99.90
11107;DHT22;5607;48.302;14.294;2023-02-02T15:00:19;3.50;99.90
11107;DHT22;5607;48.302;14.294;2023-02-02T15:06:35;3.50;99.90
11107;DHT22;5607;48.302;14.294;2023-02-02T15:09:33;3.40;99.90
11107;DHT22;5607;48.302;14.294;2023-02-02T15:18:21;3.40;99.90
11107;DHT22;5607;48.302;14.294;2023-02-02T15:21:15;3.40;99.90
11107;DHT22;5607;48.302;14.294;2023-02-02T15:24:14;3.40;99.90
11107;DHT22;5607;48.302;14.294;2023-02-02T15:27:11;3.40;99.90
11107;DHT22;5607;48.302;14.294;2023-02-02T15:30:03;3.50;99.90
11107;DHT22;5607;48.302;14.294;2023-02-02T15:32:54;3.40;99.90
11107;DHT22;5607;48.302;14.294;2023-02-02T15:35:41;3.40;99.90
11107;DHT22;5607;48.302;14.294;2023-02-02T15:38:32;3.50;99.90
11107;DHT22;5607;48.302;14.294;2023-02-02T15:42:06;3.40;99.90
11107;DHT22;5607;48.302;14.294;2023-02-02T15:44:33;3.30;99.90
11107;DHT22;5607;48.302;14.294;2023-02-02T15:47:29;3.30;99.90
11107;DHT22;5607;48.302;14.294;2023-02-02T15:50:20;3.30;99.90
11107;DHT22;5607;48.302;14.294;2023-02-02T15:53:13;3.30;99.90
11107;DHT22;5607;48.302;14.294;2023-02-02T15:59:42;3.20;99.90
11107;DHT22;5607;48.302;14.294;2023-02-02T16:02:28;3.00;99.90
11107;DHT22;5607;48.302;14.294;2023-02-02T16:05:37;2.90;99.90
11107;DHT22;5607;48.302;14.294;2023-02-02T16:08:35;3.00;99.90
11107;DHT22;5607;48.302;14.294;2023-02-02T16:11:23;3.00;99.90
11107;DHT22;5607;48.302;14.294;2023-02-02T16:14:12;2.90;99.90
11107;DHT22;5607;48.302;14.294;2023-02-02T16:17:09;2.90;99.90
11107;DHT22;5607;48.302;14.294;2023-02-02T16:20:14;2.90;99.90
11107;DHT22;5607;48.302;14.294;2023-02-02T16:23:03;2.90;99.90
11107;DHT22;5607;48.302;14.294;2023-02-02T16:25:53;3.00;99.90
11107;DHT22;5607;48.302;14.294;2023-02-02T16:28:42;3.00;99.90
11107;DHT22;5607;48.302;14.294;2023-02-02T16:31:28;3.10;99.90
11107;DHT22;5607;48.302;14.294;2023-02-02T16:34:17;3.10;99.90
11107;DHT22;5607;48.302;14.294;2023-02-02T16:37:31;3.30;99.90
11107;DHT22;5607;48.302;14.294;2023-02-02T16:40:25;3.20;99.90
11107;DHT22;5607;48.302;14.294;2023-02-02T16:43:18;3.20;99.90
11107;DHT22;5607;48.302;14.294;2023-02-02T16:46:10;3.20;99.90
11107;DHT22;5607;48.302;14.294;2023-02-02T16:48:58;3.20;99.90
11107;DHT22;5607;48.302;14.294;2023-02-02T16:51:45;3.00;99.90
11107;DHT22;5607;48.302;14.294;2023-02-02T16:54:34;3.10;99.90
11107;DHT22;5607;48.302;14.294;2023-02-02T16:57:22;3.10;99.90
11107;DHT22;5607;48.302;14.294;2023-02-02T17:00:19;3.10;99.90
11107;DHT22;5607;48.302;14.294;2023-02-02T17:03:07;3.10;99.90
11107;DHT22;5607;48.302;14.294;2023-02-02T17:05:58;3.20;99.90
11107;DHT22;5607;48.302;14.294;2023-02-02T17:08:45;3.10;99.90
11107;DHT22;5607;48.302;14.294;2023-02-02T17:11:32;3.10;99.90
11107;DHT22;5607;48.302;14.294;2023-02-02T17:14:22;3.10;99.90
11107;DHT22;5607;48.302;14.294;2023-02-02T17:17:18;3.10;99.90
11107;DHT22;5607;48.302;14.294;2023-02-02T17:20:05;3.30;99.90
11107;DHT22;5607;48.302;14.294;2023-02-02T17:22:57;3.20;99.90
11107;DHT22;5607;48.302;14.294;2023-02-02T17:25:47;3.00;99.90
11107;DHT22;5607;48.302;14.294;2023-02-02T17:28:33;3.00;99.90
11107;DHT22;5607;48.302;14.294;2023-02-02T17:31:22;3.10;99.90
11107;DHT22;5607;48.302;14.294;2023-02-02T17:34:10;3.10;99.90
11107;DHT22;5607;48.302;14.294;2023-02-02T17:37:01;3.10;99.90
11107;DHT22;5607;48.302;14.294;2023-02-02T17:39:48;3.10;99.90
11107;DHT22;5607;48.302;14.294;2023-02-02T17:42:35;3.10;99.90
11107;DHT22;5607;48.302;14.294;2023-02-02T17:45:23;3.10;99.90
11107;DHT22;5607;48.302;14.294;2023-02-02T17:48:15;3.20;99.90
11107;DHT22;5607;48.302;14.294;2023-02-02T17:51:02;3.20;99.90
11107;DHT22;5607;48.302;14.294;2023-02-02T17:53:52;3.20;99.90
11107;DHT22;5607;48.302;14.294;2023-02-02T17:56:42;3.00;99.90
11107;DHT22;5607;48.302;14.294;2023-02-02T17:59:29;2.80;99.90
11107;DHT22;5607;48.302;14.294;2023-02-02T18:02:16;2.80;99.90
11107;DHT22;5607;48.302;14.294;2023-02-02T18:05:03;2.80;99.90
11107;DHT22;5607;48.302;14.294;2023-02-02T18:07:50;2.70;99.90
11107;DHT22;5607;48.302;14.294;2023-02-02T18:10:36;2.60;99.90
11107;DHT22;5607;48.302;14.294;2023-02-02T18:13:23;2.60;99.90
11107;DHT22;5607;48.302;14.294;2023-02-02T18:16:10;2.60;99.90
11107;DHT22;5607;48.302;14.294;2023-02-02T18:18:57;2.50;99.90
11107;DHT22;5607;48.302;14.294;2023-02-02T18:21:45;2.40;99.90
11107;DHT22;5607;48.302;14.294;2023-02-02T18:24:32;2.40;99.90
11107;DHT22;5607;48.302;14.294;2023-02-02T18:27:18;2.40;99.90
11107;DHT22;5607;48.302;14.294;2023-02-02T18:30:05;2.40;99.90
11107;DHT22;5607;48.302;14.294;2023-02-02T18:32:52;2.50;99.90
11107;DHT22;5607;48.302;14.294;2023-02-02T18:35:45;2.60;99.90
11107;DHT22;5607;48.302;14.294;2023-02-02T18:38:33;2.70;99.90
11107;DHT22;5607;48.302;14.294;2023-02-02T18:41:19;2.80;99.90
11107;DHT22;5607;48.302;14.294;2023-02-02T18:44:06;2.90;99.90
11107;DHT22;5607;48.302;14.294;2023-02-02T18:46:53;2.90;99.90
11107;DHT22;5607;48.302;14.294;2023-02-02T18:49:40;3.00;99.90
11107;DHT22;5607;48.302;14.294;2023-02-02T18:52:30;3.00;99.90
11107;DHT22;5607;48.302;14.294;2023-02-02T18:55:17;2.90;99.90
11107;DHT22;5607;48.302;14.294;2023-02-02T18:58:04;3.00;99.90
11107;DHT22;5607;48.302;14.294;2023-02-02T19:00:53;3.00;99.90
11107;DHT22;5607;48.302;14.294;2023-02-02T19:03:39;3.00;99.90
11107;DHT22;5607;48.302;14.294;2023-02-02T19:06:26;2.90;99.90
11107;DHT22;5607;48.302;14.294;2023-02-02T19:09:31;2.90;99.90
11107;DHT22;5607;48.302;14.294;2023-02-02T19:12:18;3.10;99.90
11107;DHT22;5607;48.302;14.294;2023-02-02T19:15:08;3.10;99.90
11107;DHT22;5607;48.302;14.294;2023-02-02T19:17:57;3.20;99.90
11107;DHT22;5607;48.302;14.294;2023-02-02T19:20:44;3.10;99.90
11107;DHT22;5607;48.302;14.294;2023-02-02T19:23:32;3.10;99.90
11107;DHT22;5607;48.302;14.294;2023-02-02T19:26:25;3.10;99.90
11107;DHT22;5607;48.302;14.294;2023-02-02T19:29:17;3.20;99.90
11107;DHT22;5607;48.302;14.294;2023-02-02T19:32:11;3.20;99.90
11107;DHT22;5607;48.302;14.294;2023-02-02T19:35:19;3.20;99.90
11107;DHT22;5607;48.302;14.294;2023-02-02T19:38:09;3.20;99.90
11107;DHT22;5607;48.302;14.294;2023-02-02T19:40:58;3.20;99.90
11107;DHT22;5607;48.302;14.294;2023-02-02T19:43:47;3.20;99.90
11107;DHT22;5607;48.302;14.294;2023-02-02T19:46:43;3.10;99.90
11107;DHT22;5607;48.302;14.294;2023-02-02T19:49:33;3.00;99.90
11107;DHT22;5607;48.302;14.294;2023-02-02T19:52:21;3.00;99.90
11107;DHT22;5607;48.302;14.294;2023-02-02T19:55:21;3.00;99.90
11107;DHT22;5607;48.302;14.294;2023-02-02T19:58:17;3.00;99.90
11107;DHT22;5607;48.302;14.294;2023-02-02T20:01:13;3.10;99.90
11107;DHT22;5607;48.302;14.294;2023-02-02T20:04:09;3.00;99.90
11107;DHT22;5607;48.302;14.294;2023-02-02T20:07:08;3.20;99.90
11107;DHT22;5607;48.302;14.294;2023-02-02T20:10:21;3.30;99.90
11107;DHT22;5607;48.302;14.294;2023-02-02T20:13:15;3.30;99.90
11107;DHT22;5607;48.302;14.294;2023-02-02T20:16:03;3.50;99.90
11107;DHT22;5607;48.302;14.294;2023-02-02T20:18:53;3.60;99.90
11107;DHT22;5607;48.302;14.294;2023-02-02T20:21:42;3.70;99.90
11107;DHT22;5607;48.302;14.294;2023-02-02T20:24:35;3.70;99.90
11107;DHT22;5607;48.302;14.294;2023-02-02T20:27:27;3.80;99.90
11107;DHT22;5607;48.302;14.294;2023-02-02T20:30:20;3.90;99.90
11107;DHT22;5607;48.302;14.294;2023-02-02T20:33:14;3.90;99.90
11107;DHT22;5607;48.302;14.294;2023-02-02T20:42:33;4.00;99.90